sensor_id;sensor_type;location;lat;lon;timestamp;P1;durP1;ratioP1;P2;durP2;ratioP2
78589;SDS011;67888;50.228;7.828;2024-03-08T00:00:19;19.40;;;9.85;;
78589;SDS011;67888;50.228;7.828;2024-03-08T00:05:20;18.80;;;9.57;;
78589;SDS011;67888;50.228;7.828;2024-03-08T00:10:20;20.80;;;9.50;;
78589;SDS011;67888;50.228;7.828;2024-03-08T00:15:21;24.55;;;10.00;;
78589;SDS011;67888;50.228;7.828;2024-03-08T00:20:23;19.80;;;10.10;;
78589;SDS011;67888;50.228;7.828;2024-03-08T00:25:23;21.00;;;9.97;;
78589;SDS011;67888;50.228;7.828;2024-03-08T00:30:24;23.03;;;10.43;;
78589;SDS011;67888;50.228;7.828;2024-03-08T00:35:25;21.48;;;10.05;;
78589;SDS011;67888;50.228;7.828;2024-03-08T00:40:25;20.70;;;9.47;;
78589;SDS011;67888;50.228;7.828;2024-03-08T00:45:26;20.30;;;9.67;;
78589;SDS011;67888;50.228;7.828;2024-03-08T00:50:26;23.10;;;10.50;;
78589;SDS011;67888;50.228;7.828;2024-03-08T00:55:27;22.77;;;10.00;;
78589;SDS011;67888;50.228;7.828;2024-03-08T01:00:28;22.17;;;10.00;;
78589;SDS011;67888;50.228;7.828;2024-03-08T01:05:29;25.73;;;11.20;;
78589;SDS011;67888;50.228;7.828;2024-03-08T01:10:30;24.35;;;11.10;;
78589;SDS011;67888;50.228;7.828;2024-03-08T01:15:30;25.50;;;10.43;;
78589;SDS011;67888;50.228;7.828;2024-03-08T01:20:31;21.60;;;11.03;;
78589;SDS011;67888;50.228;7.828;2024-03-08T01:25:31;23.10;;;10.00;;
78589;SDS011;67888;50.228;7.828;2024-03-08T01:30:33;23.83;;;10.57;;
78589;SDS011;67888;50.228;7.828;2024-03-08T01:35:34;24.33;;;11.15;;
78589;SDS011;67888;50.228;7.828;2024-03-08T01:40:35;21.23;;;10.17;;
78589;SDS011;67888;50.228;7.828;2024-03-08T01:45:36;19.52;;;9.13;;
78589;SDS011;67888;50.228;7.828;2024-03-08T01:50:37;25.13;;;11.23;;
78589;SDS011;67888;50.228;7.828;2024-03-08T01:55:39;23.43;;;10.53;;
78589;SDS011;67888;50.228;7.828;2024-03-08T02:00:42;24.17;;;10.77;;
78589;SDS011;67888;50.228;7.828;2024-03-08T02:05:44;21.60;;;9.75;;
78589;SDS011;67888;50.228;7.828;2024-03-08T02:10:45;20.37;;;8.93;;
78589;SDS011;67888;50.228;7.828;2024-03-08T02:15:52;19.73;;;8.67;;
78589;SDS011;67888;50.228;7.828;2024-03-08T02:20:59;21.58;;;9.85;;
78589;SDS011;67888;50.228;7.828;2024-03-08T02:26:00;21.80;;;9.70;;
78589;SDS011;67888;50.228;7.828;2024-03-08T02:31:01;22.13;;;9.88;;
78589;SDS011;67888;50.228;7.828;2024-03-08T02:36:02;22.03;;;9.80;;
78589;SDS011;67888;50.228;7.828;2024-03-08T02:41:03;20.02;;;9.10;;
78589;SDS011;67888;50.228;7.828;2024-03-08T02:46:04;19.93;;;9.33;;
78589;SDS011;67888;50.228;7.828;2024-03-08T02:51:05;20.17;;;9.40;;
78589;SDS011;67888;50.228;7.828;2024-03-08T02:56:06;23.13;;;9.77;;
78589;SDS011;67888;50.228;7.828;2024-03-08T03:01:09;21.90;;;10.02;;
78589;SDS011;67888;50.228;7.828;2024-03-08T03:06:10;20.63;;;9.38;;
78589;SDS011;67888;50.228;7.828;2024-03-08T03:11:12;22.43;;;9.53;;
78589;SDS011;67888;50.228;7.828;2024-03-08T03:16:17;19.88;;;9.07;;
78589;SDS011;67888;50.228;7.828;2024-03-08T03:21:19;23.47;;;9.37;;
78589;SDS011;67888;50.228;7.828;2024-03-08T03:26:20;20.67;;;9.07;;
78589;SDS011;67888;50.228;7.828;2024-03-08T03:31:22;21.27;;;9.50;;
78589;SDS011;67888;50.228;7.828;2024-03-08T03:36:24;21.88;;;9.45;;
78589;SDS011;67888;50.228;7.828;2024-03-08T03:41:25;22.85;;;9.32;;
78589;SDS011;67888;50.228;7.828;2024-03-08T03:46:25;22.53;;;9.93;;
78589;SDS011;67888;50.228;7.828;2024-03-08T03:51:27;21.90;;;9.13;;
78589;SDS011;67888;50.228;7.828;2024-03-08T03:56:29;23.35;;;9.25;;
78589;SDS011;67888;50.228;7.828;2024-03-08T04:01:30;19.85;;;8.85;;
78589;SDS011;67888;50.228;7.828;2024-03-08T04:06:31;23.70;;;9.77;;
78589;SDS011;67888;50.228;7.828;2024-03-08T04:11:31;24.03;;;10.10;;
78589;SDS011;67888;50.228;7.828;2024-03-08T04:16:31;24.73;;;9.40;;
78589;SDS011;67888;50.228;7.828;2024-03-08T04:21:32;21.70;;;8.70;;
78589;SDS011;67888;50.228;7.828;2024-03-08T04:26:32;20.90;;;8.90;;
78589;SDS011;67888;50.228;7.828;2024-03-08T04:31:34;21.88;;;9.05;;
78589;SDS011;67888;50.228;7.828;2024-03-08T04:36:34;23.40;;;10.10;;
78589;SDS011;67888;50.228;7.828;2024-03-08T04:41:35;21.70;;;9.00;;
78589;SDS011;67888;50.228;7.828;2024-03-08T04:46:37;21.45;;;9.98;;
78589;SDS011;67888;50.228;7.828;2024-03-08T04:51:37;24.00;;;9.97;;
78589;SDS011;67888;50.228;7.828;2024-03-08T04:56:38;21.07;;;9.00;;
78589;SDS011;67888;50.228;7.828;2024-03-08T05:01:39;20.87;;;8.97;;
78589;SDS011;67888;50.228;7.828;2024-03-08T05:06:39;25.27;;;10.07;;
78589;SDS011;67888;50.228;7.828;2024-03-08T05:11:40;23.60;;;9.50;;
78589;SDS011;67888;50.228;7.828;2024-03-08T05:16:41;24.37;;;9.50;;
78589;SDS011;67888;50.228;7.828;2024-03-08T05:21:49;22.38;;;9.85;;
78589;SDS011;67888;50.228;7.828;2024-03-08T05:26:50;20.17;;;9.10;;
78589;SDS011;67888;50.228;7.828;2024-03-08T05:31:51;22.40;;;9.00;;
78589;SDS011;67888;50.228;7.828;2024-03-08T05:36:52;22.77;;;9.33;;
78589;SDS011;67888;50.228;7.828;2024-03-08T05:41:54;25.90;;;9.98;;
78589;SDS011;67888;50.228;7.828;2024-03-08T05:46:55;23.60;;;10.10;;
78589;SDS011;67888;50.228;7.828;2024-03-08T05:51:56;24.10;;;9.83;;
78589;SDS011;67888;50.228;7.828;2024-03-08T05:56:57;22.27;;;8.80;;
78589;SDS011;67888;50.228;7.828;2024-03-08T06:01:57;23.50;;;9.90;;
78589;SDS011;67888;50.228;7.828;2024-03-08T06:06:58;24.10;;;10.80;;
78589;SDS011;67888;50.228;7.828;2024-03-08T06:11:58;25.05;;;10.25;;
78589;SDS011;67888;50.228;7.828;2024-03-08T06:16:59;22.70;;;8.77;;
78589;SDS011;67888;50.228;7.828;2024-03-08T06:22:00;23.52;;;10.82;;
78589;SDS011;67888;50.228;7.828;2024-03-08T06:27:02;23.47;;;10.13;;
78589;SDS011;67888;50.228;7.828;2024-03-08T06:32:04;26.83;;;10.13;;
78589;SDS011;67888;50.228;7.828;2024-03-08T06:37:04;26.77;;;10.50;;
78589;SDS011;67888;50.228;7.828;2024-03-08T06:42:05;27.13;;;9.90;;
78589;SDS011;67888;50.228;7.828;2024-03-08T06:47:05;25.50;;;10.37;;
78589;SDS011;67888;50.228;7.828;2024-03-08T06:52:06;25.80;;;10.57;;
78589;SDS011;67888;50.228;7.828;2024-03-08T06:57:09;26.73;;;11.27;;
78589;SDS011;67888;50.228;7.828;2024-03-08T07:02:10;24.52;;;11.90;;
78589;SDS011;67888;50.228;7.828;2024-03-08T07:07:11;27.27;;;11.52;;
78589;SDS011;67888;50.228;7.828;2024-03-08T07:12:12;24.67;;;11.67;;
78589;SDS011;67888;50.228;7.828;2024-03-08T07:17:13;24.93;;;10.60;;
78589;SDS011;67888;50.228;7.828;2024-03-08T07:22:14;20.95;;;9.48;;
78589;SDS011;67888;50.228;7.828;2024-03-08T07:27:14;23.57;;;10.67;;
78589;SDS011;67888;50.228;7.828;2024-03-08T07:32:15;22.90;;;10.30;;
78589;SDS011;67888;50.228;7.828;2024-03-08T07:37:21;22.35;;;10.13;;
78589;SDS011;67888;50.228;7.828;2024-03-08T07:42:22;23.33;;;9.80;;
78589;SDS011;67888;50.228;7.828;2024-03-08T07:47:23;20.60;;;10.20;;
78589;SDS011;67888;50.228;7.828;2024-03-08T07:52:23;20.20;;;9.70;;
78589;SDS011;67888;50.228;7.828;2024-03-08T07:57:24;20.40;;;9.73;;
78589;SDS011;67888;50.228;7.828;2024-03-08T08:02:25;20.40;;;9.80;;
78589;SDS011;67888;50.228;7.828;2024-03-08T08:07:25;20.60;;;9.53;;
78589;SDS011;67888;50.228;7.828;2024-03-08T08:12:27;20.38;;;9.23;;
78589;SDS011;67888;50.228;7.828;2024-03-08T08:17:29;22.27;;;10.75;;
78589;SDS011;67888;50.228;7.828;2024-03-08T08:22:29;20.53;;;9.17;;
78589;SDS011;67888;50.228;7.828;2024-03-08T08:27:30;19.43;;;9.60;;
78589;SDS011;67888;50.228;7.828;2024-03-08T08:32:30;21.17;;;9.77;;
78589;SDS011;67888;50.228;7.828;2024-03-08T08:37:31;19.03;;;8.97;;
78589;SDS011;67888;50.228;7.828;2024-03-08T08:42:32;19.52;;;8.98;;
78589;SDS011;67888;50.228;7.828;2024-03-08T08:47:32;18.40;;;9.07;;
78589;SDS011;67888;50.228;7.828;2024-03-08T08:52:33;19.53;;;9.13;;
78589;SDS011;67888;50.228;7.828;2024-03-08T08:57:34;18.02;;;9.50;;
78589;SDS011;67888;50.228;7.828;2024-03-08T09:02:35;18.10;;;8.30;;
78589;SDS011;67888;50.228;7.828;2024-03-08T09:07:37;19.00;;;9.73;;
78589;SDS011;67888;50.228;7.828;2024-03-08T09:12:40;18.23;;;9.37;;
78589;SDS011;67888;50.228;7.828;2024-03-08T09:17:40;16.75;;;8.52;;
78589;SDS011;67888;50.228;7.828;2024-03-08T09:22:43;18.00;;;8.77;;
78589;SDS011;67888;50.228;7.828;2024-03-08T09:27:44;18.30;;;9.23;;
78589;SDS011;67888;50.228;7.828;2024-03-08T09:32:46;17.53;;;8.50;;
78589;SDS011;67888;50.228;7.828;2024-03-08T09:37:47;18.13;;;8.60;;
78589;SDS011;67888;50.228;7.828;2024-03-08T09:42:51;16.03;;;8.17;;
78589;SDS011;67888;50.228;7.828;2024-03-08T09:47:52;17.17;;;9.23;;
78589;SDS011;67888;50.228;7.828;2024-03-08T09:52:54;16.80;;;7.63;;
78589;SDS011;67888;50.228;7.828;2024-03-08T09:57:57;16.08;;;8.38;;
78589;SDS011;67888;50.228;7.828;2024-03-08T10:03:27;16.80;;;8.47;;
78589;SDS011;67888;50.228;7.828;2024-03-08T10:08:29;17.45;;;8.60;;
78589;SDS011;67888;50.228;7.828;2024-03-08T10:13:30;16.07;;;7.80;;
78589;SDS011;67888;50.228;7.828;2024-03-08T10:18:32;18.40;;;9.38;;
78589;SDS011;67888;50.228;7.828;2024-03-08T10:23:33;15.13;;;7.57;;
78589;SDS011;67888;50.228;7.828;2024-03-08T10:28:33;18.60;;;8.85;;
78589;SDS011;67888;50.228;7.828;2024-03-08T10:33:34;19.33;;;9.20;;
78589;SDS011;67888;50.228;7.828;2024-03-08T10:38:38;17.10;;;8.20;;
78589;SDS011;67888;50.228;7.828;2024-03-08T10:44:06;18.88;;;8.93;;
78589;SDS011;67888;50.228;7.828;2024-03-08T10:49:22;18.07;;;9.27;;
78589;SDS011;67888;50.228;7.828;2024-03-08T10:54:30;16.60;;;8.68;;
78589;SDS011;67888;50.228;7.828;2024-03-08T10:59:32;17.10;;;9.23;;
78589;SDS011;67888;50.228;7.828;2024-03-08T11:04:36;17.43;;;8.40;;
78589;SDS011;67888;50.228;7.828;2024-03-08T11:09:37;16.08;;;8.68;;
78589;SDS011;67888;50.228;7.828;2024-03-08T11:14:48;16.42;;;9.18;;
78589;SDS011;67888;50.228;7.828;2024-03-08T11:19:49;17.63;;;8.87;;
78589;SDS011;67888;50.228;7.828;2024-03-08T11:24:52;16.40;;;8.50;;
78589;SDS011;67888;50.228;7.828;2024-03-08T11:30:05;18.25;;;9.95;;
78589;SDS011;67888;50.228;7.828;2024-03-08T11:35:19;18.87;;;9.80;;
78589;SDS011;67888;50.228;7.828;2024-03-08T11:40:20;18.17;;;9.35;;
78589;SDS011;67888;50.228;7.828;2024-03-08T11:45:22;17.85;;;10.02;;
78589;SDS011;67888;50.228;7.828;2024-03-08T11:50:23;17.13;;;8.93;;
78589;SDS011;67888;50.228;7.828;2024-03-08T11:55:23;16.17;;;8.30;;
78589;SDS011;67888;50.228;7.828;2024-03-08T12:00:25;13.95;;;7.53;;
78589;SDS011;67888;50.228;7.828;2024-03-08T12:05:26;16.42;;;8.40;;
78589;SDS011;67888;50.228;7.828;2024-03-08T12:10:27;13.97;;;6.70;;
78589;SDS011;67888;50.228;7.828;2024-03-08T12:15:32;14.45;;;8.10;;
78589;SDS011;67888;50.228;7.828;2024-03-08T12:20:34;16.10;;;9.02;;
78589;SDS011;67888;50.228;7.828;2024-03-08T12:25:34;16.13;;;7.73;;
78589;SDS011;67888;50.228;7.828;2024-03-08T12:30:48;16.85;;;8.35;;
78589;SDS011;67888;50.228;7.828;2024-03-08T12:35:52;14.87;;;8.07;;
78589;SDS011;67888;50.228;7.828;2024-03-08T12:40:58;16.98;;;9.15;;
78589;SDS011;67888;50.228;7.828;2024-03-08T12:45:59;18.98;;;9.25;;
78589;SDS011;67888;50.228;7.828;2024-03-08T12:50:59;14.67;;;8.33;;
78589;SDS011;67888;50.228;7.828;2024-03-08T12:56:01;17.95;;;9.10;;
78589;SDS011;67888;50.228;7.828;2024-03-08T13:01:04;15.80;;;8.27;;
78589;SDS011;67888;50.228;7.828;2024-03-08T13:06:07;18.42;;;10.05;;
78589;SDS011;67888;50.228;7.828;2024-03-08T13:11:08;16.73;;;9.70;;
78589;SDS011;67888;50.228;7.828;2024-03-08T13:16:11;21.50;;;10.75;;
78589;SDS011;67888;50.228;7.828;2024-03-08T13:21:15;23.38;;;12.38;;
78589;SDS011;67888;50.228;7.828;2024-03-08T13:26:18;19.37;;;11.43;;
78589;SDS011;67888;50.228;7.828;2024-03-08T13:31:19;19.27;;;10.30;;
78589;SDS011;67888;50.228;7.828;2024-03-08T13:36:20;19.17;;;11.43;;
78589;SDS011;67888;50.228;7.828;2024-03-08T13:41:21;16.80;;;10.40;;
78589;SDS011;67888;50.228;7.828;2024-03-08T13:46:24;18.60;;;12.37;;
78589;SDS011;67888;50.228;7.828;2024-03-08T13:51:26;18.85;;;13.57;;
78589;SDS011;67888;50.228;7.828;2024-03-08T13:56:27;17.37;;;13.57;;
78589;SDS011;67888;50.228;7.828;2024-03-08T14:01:30;16.98;;;14.48;;
78589;SDS011;67888;50.228;7.828;2024-03-08T14:06:30;20.87;;;16.47;;
78589;SDS011;67888;50.228;7.828;2024-03-08T14:11:30;18.40;;;14.83;;
78589;SDS011;67888;50.228;7.828;2024-03-08T14:16:31;16.77;;;15.00;;
78589;SDS011;67888;50.228;7.828;2024-03-08T14:21:32;20.10;;;17.95;;
78589;SDS011;67888;50.228;7.828;2024-03-08T14:26:33;21.03;;;17.67;;
78589;SDS011;67888;50.228;7.828;2024-03-08T14:31:34;17.25;;;14.75;;
78589;SDS011;67888;50.228;7.828;2024-03-08T14:36:36;21.27;;;18.53;;
78589;SDS011;67888;50.228;7.828;2024-03-08T14:41:37;18.10;;;16.27;;
78589;SDS011;67888;50.228;7.828;2024-03-08T14:46:38;19.40;;;17.33;;
78589;SDS011;67888;50.228;7.828;2024-03-08T14:51:38;17.65;;;15.85;;
78589;SDS011;67888;50.228;7.828;2024-03-08T14:56:39;19.63;;;16.53;;
78589;SDS011;67888;50.228;7.828;2024-03-08T15:01:41;18.10;;;16.13;;
78589;SDS011;67888;50.228;7.828;2024-03-08T15:06:43;20.98;;;18.88;;
78589;SDS011;67888;50.228;7.828;2024-03-08T15:11:46;21.05;;;18.92;;
78589;SDS011;67888;50.228;7.828;2024-03-08T15:16:49;23.00;;;20.80;;
78589;SDS011;67888;50.228;7.828;2024-03-08T15:21:51;26.55;;;24.15;;
78589;SDS011;67888;50.228;7.828;2024-03-08T15:26:55;29.77;;;27.33;;
78589;SDS011;67888;50.228;7.828;2024-03-08T15:31:57;30.37;;;27.93;;
78589;SDS011;67888;50.228;7.828;2024-03-08T15:36:58;31.47;;;28.87;;
78589;SDS011;67888;50.228;7.828;2024-03-08T15:42:02;35.20;;;32.27;;
78589;SDS011;67888;50.228;7.828;2024-03-08T15:47:03;31.87;;;29.27;;
78589;SDS011;67888;50.228;7.828;2024-03-08T15:52:04;34.28;;;31.38;;
78589;SDS011;67888;50.228;7.828;2024-03-08T15:57:06;30.43;;;27.83;;
78589;SDS011;67888;50.228;7.828;2024-03-08T16:02:13;29.42;;;26.75;;
78589;SDS011;67888;50.228;7.828;2024-03-08T16:07:13;26.77;;;24.17;;
78589;SDS011;67888;50.228;7.828;2024-03-08T16:12:14;25.45;;;22.95;;
78589;SDS011;67888;50.228;7.828;2024-03-08T16:17:15;24.37;;;21.93;;
78589;SDS011;67888;50.228;7.828;2024-03-08T16:22:17;24.10;;;20.65;;
78589;SDS011;67888;50.228;7.828;2024-03-08T16:27:18;21.13;;;18.10;;
78589;SDS011;67888;50.228;7.828;2024-03-08T16:32:18;23.63;;;20.27;;
78589;SDS011;67888;50.228;7.828;2024-03-08T16:37:20;22.90;;;17.57;;
78589;SDS011;67888;50.228;7.828;2024-03-08T16:42:22;19.17;;;14.35;;
78589;SDS011;67888;50.228;7.828;2024-03-08T16:47:23;19.15;;;12.50;;
78589;SDS011;67888;50.228;7.828;2024-03-08T16:52:24;19.70;;;11.40;;
78589;SDS011;67888;50.228;7.828;2024-03-08T16:57:25;19.75;;;11.75;;
78589;SDS011;67888;50.228;7.828;2024-03-08T17:02:28;19.40;;;10.65;;
78589;SDS011;67888;50.228;7.828;2024-03-08T17:07:30;19.43;;;10.50;;
78589;SDS011;67888;50.228;7.828;2024-03-08T17:12:32;20.92;;;11.57;;
78589;SDS011;67888;50.228;7.828;2024-03-08T17:17:32;18.80;;;10.00;;
78589;SDS011;67888;50.228;7.828;2024-03-08T17:22:32;20.17;;;10.60;;
78589;SDS011;67888;50.228;7.828;2024-03-08T17:27:33;19.70;;;9.98;;
78589;SDS011;67888;50.228;7.828;2024-03-08T17:32:36;22.90;;;12.23;;
78589;SDS011;67888;50.228;7.828;2024-03-08T17:37:38;23.17;;;12.57;;
78589;SDS011;67888;50.228;7.828;2024-03-08T17:42:38;26.60;;;14.20;;
78589;SDS011;67888;50.228;7.828;2024-03-08T17:47:39;21.97;;;11.60;;
78589;SDS011;67888;50.228;7.828;2024-03-08T17:52:41;23.88;;;12.02;;
78589;SDS011;67888;50.228;7.828;2024-03-08T17:57:42;22.17;;;11.23;;
78589;SDS011;67888;50.228;7.828;2024-03-08T18:02:48;25.37;;;12.03;;
78589;SDS011;67888;50.228;7.828;2024-03-08T18:07:52;21.23;;;11.20;;
78589;SDS011;67888;50.228;7.828;2024-03-08T18:12:54;20.77;;;10.52;;
78589;SDS011;67888;50.228;7.828;2024-03-08T18:17:59;19.67;;;10.30;;
78589;SDS011;67888;50.228;7.828;2024-03-08T18:23:03;19.75;;;9.85;;
78589;SDS011;67888;50.228;7.828;2024-03-08T18:28:07;20.20;;;10.13;;
78589;SDS011;67888;50.228;7.828;2024-03-08T18:33:09;20.83;;;10.50;;
78589;SDS011;67888;50.228;7.828;2024-03-08T18:38:14;21.23;;;9.90;;
78589;SDS011;67888;50.228;7.828;2024-03-08T18:43:14;20.00;;;9.67;;
78589;SDS011;67888;50.228;7.828;2024-03-08T18:48:15;23.20;;;9.75;;
78589;SDS011;67888;50.228;7.828;2024-03-08T18:53:16;19.97;;;9.13;;
78589;SDS011;67888;50.228;7.828;2024-03-08T18:58:24;21.47;;;10.03;;
78589;SDS011;67888;50.228;7.828;2024-03-08T19:03:31;21.13;;;10.10;;
78589;SDS011;67888;50.228;7.828;2024-03-08T19:08:34;22.92;;;9.55;;
78589;SDS011;67888;50.228;7.828;2024-03-08T19:13:36;20.08;;;8.73;;
78589;SDS011;67888;50.228;7.828;2024-03-08T19:18:37;20.50;;;10.33;;
78589;SDS011;67888;50.228;7.828;2024-03-08T19:23:37;21.30;;;9.47;;
78589;SDS011;67888;50.228;7.828;2024-03-08T19:28:38;18.90;;;8.87;;
78589;SDS011;67888;50.228;7.828;2024-03-08T19:33:39;19.90;;;8.57;;
78589;SDS011;67888;50.228;7.828;2024-03-08T19:38:40;18.37;;;8.03;;
78589;SDS011;67888;50.228;7.828;2024-03-08T19:43:41;19.00;;;8.27;;
78589;SDS011;67888;50.228;7.828;2024-03-08T19:48:42;21.02;;;9.68;;
78589;SDS011;67888;50.228;7.828;2024-03-08T19:53:43;20.73;;;9.53;;
78589;SDS011;67888;50.228;7.828;2024-03-08T19:58:44;21.50;;;10.00;;
78589;SDS011;67888;50.228;7.828;2024-03-08T20:03:44;22.83;;;10.20;;
78589;SDS011;67888;50.228;7.828;2024-03-08T20:08:45;19.67;;;8.83;;
78589;SDS011;67888;50.228;7.828;2024-03-08T20:13:45;18.93;;;8.07;;
78589;SDS011;67888;50.228;7.828;2024-03-08T20:18:46;25.60;;;7.83;;
78589;SDS011;67888;50.228;7.828;2024-03-08T20:23:48;18.33;;;7.77;;
78589;SDS011;67888;50.228;7.828;2024-03-08T20:28:49;19.88;;;8.90;;
78589;SDS011;67888;50.228;7.828;2024-03-08T20:33:51;20.97;;;9.77;;
78589;SDS011;67888;50.228;7.828;2024-03-08T20:38:51;20.70;;;8.63;;
78589;SDS011;67888;50.228;7.828;2024-03-08T20:43:52;19.53;;;8.97;;
78589;SDS011;67888;50.228;7.828;2024-03-08T20:48:54;20.95;;;8.65;;
78589;SDS011;67888;50.228;7.828;2024-03-08T20:53:55;19.07;;;8.00;;
78589;SDS011;67888;50.228;7.828;2024-03-08T20:58:56;22.33;;;9.27;;
78589;SDS011;67888;50.228;7.828;2024-03-08T21:03:57;19.95;;;7.72;;
78589;SDS011;67888;50.228;7.828;2024-03-08T21:08:57;19.03;;;8.67;;
78589;SDS011;67888;50.228;7.828;2024-03-08T21:13:59;18.85;;;7.57;;
78589;SDS011;67888;50.228;7.828;2024-03-08T21:19:00;18.97;;;8.50;;
78589;SDS011;67888;50.228;7.828;2024-03-08T21:24:00;23.00;;;10.30;;
78589;SDS011;67888;50.228;7.828;2024-03-08T21:29:02;27.45;;;13.85;;
78589;SDS011;67888;50.228;7.828;2024-03-08T21:34:03;27.80;;;14.38;;
78589;SDS011;67888;50.228;7.828;2024-03-08T21:39:05;21.77;;;10.30;;
78589;SDS011;67888;50.228;7.828;2024-03-08T21:44:11;31.70;;;13.98;;
78589;SDS011;67888;50.228;7.828;2024-03-08T21:49:11;34.97;;;14.80;;
78589;SDS011;67888;50.228;7.828;2024-03-08T21:54:12;34.93;;;14.50;;
78589;SDS011;67888;50.228;7.828;2024-03-08T21:59:13;30.27;;;13.27;;
78589;SDS011;67888;50.228;7.828;2024-03-08T22:04:14;20.67;;;8.73;;
78589;SDS011;67888;50.228;7.828;2024-03-08T22:09:17;19.02;;;8.02;;
78589;SDS011;67888;50.228;7.828;2024-03-08T22:14:20;19.17;;;8.00;;
78589;SDS011;67888;50.228;7.828;2024-03-08T22:19:23;16.92;;;7.07;;
78589;SDS011;67888;50.228;7.828;2024-03-08T22:24:25;18.95;;;7.75;;
78589;SDS011;67888;50.228;7.828;2024-03-08T22:29:25;18.50;;;7.70;;
78589;SDS011;67888;50.228;7.828;2024-03-08T22:34:25;21.57;;;9.43;;
78589;SDS011;67888;50.228;7.828;2024-03-08T22:39:26;24.83;;;13.20;;
78589;SDS011;67888;50.228;7.828;2024-03-08T22:44:28;23.00;;;9.95;;
78589;SDS011;67888;50.228;7.828;2024-03-08T22:49:29;24.57;;;11.00;;
78589;SDS011;67888;50.228;7.828;2024-03-08T22:54:30;27.33;;;11.48;;
78589;SDS011;67888;50.228;7.828;2024-03-08T22:59:30;34.70;;;15.13;;
78589;SDS011;67888;50.228;7.828;2024-03-08T23:04:31;29.40;;;13.60;;
78589;SDS011;67888;50.228;7.828;2024-03-08T23:09:34;26.93;;;11.50;;
78589;SDS011;67888;50.228;7.828;2024-03-08T23:14:38;21.88;;;9.95;;
78589;SDS011;67888;50.228;7.828;2024-03-08T23:19:40;18.03;;;8.33;;
78589;SDS011;67888;50.228;7.828;2024-03-08T23:24:41;20.30;;;8.73;;
78589;SDS011;67888;50.228;7.828;2024-03-08T23:29:43;20.50;;;8.65;;
78589;SDS011;67888;50.228;7.828;2024-03-08T23:34:44;19.37;;;8.93;;
78589;SDS011;67888;50.228;7.828;2024-03-08T23:39:44;17.83;;;7.87;;
78589;SDS011;67888;50.228;7.828;2024-03-08T23:44:44;17.47;;;7.20;;
78589;SDS011;67888;50.228;7.828;2024-03-08T23:49:46;19.08;;;8.00;;
78589;SDS011;67888;50.228;7.828;2024-03-08T23:54:47;18.73;;;9.47;;
78589;SDS011;67888;50.228;7.828;2024-03-08T23:59:48;19.33;;;8.70;;
